sensor_id;sensor_type;location;lat;lon;timestamp;temperature;humidity
49413;DHT22;35493;50.276;9.372;2023-05-07T00:00:57;16.80;74.80
49413;DHT22;35493;50.276;9.372;2023-05-07T00:03:25;16.80;75.00
49413;DHT22;35493;50.276;9.372;2023-05-07T00:05:51;16.80;75.20
49413;DHT22;35493;50.276;9.372;2023-05-07T00:08:18;16.80;75.30
49413;DHT22;35493;50.276;9.372;2023-05-07T00:10:45;16.80;75.40
49413;DHT22;35493;50.276;9.372;2023-05-07T00:13:12;16.80;75.50
49413;DHT22;35493;50.276;9.372;2023-05-07T00:15:40;16.70;75.50
49413;DHT22;35493;50.276;9.372;2023-05-07T00:18:07;16.80;75.00
49413;DHT22;35493;50.276;9.372;2023-05-07T00:20:34;16.90;74.50
49413;DHT22;35493;50.276;9.372;2023-05-07T00:23:01;16.90;74.30
49413;DHT22;35493;50.276;9.372;2023-05-07T00:25:27;16.90;74.30
49413;DHT22;35493;50.276;9.372;2023-05-07T00:27:54;16.90;74.20
49413;DHT22;35493;50.276;9.372;2023-05-07T00:30:21;16.90;74.20
49413;DHT22;35493;50.276;9.372;2023-05-07T00:32:49;16.90;74.10
49413;DHT22;35493;50.276;9.372;2023-05-07T00:35:16;16.90;74.00
49413;DHT22;35493;50.276;9.372;2023-05-07T00:37:46;16.80;74.20
49413;DHT22;35493;50.276;9.372;2023-05-07T00:40:13;16.80;74.10
49413;DHT22;35493;50.276;9.372;2023-05-07T00:42:46;16.80;74.30
49413;DHT22;35493;50.276;9.372;2023-05-07T00:45:15;16.80;74.40
49413;DHT22;35493;50.276;9.372;2023-05-07T00:47:46;16.70;74.50
49413;DHT22;35493;50.276;9.372;2023-05-07T00:50:14;16.70;74.60
49413;DHT22;35493;50.276;9.372;2023-05-07T00:52:43;16.60;74.80
49413;DHT22;35493;50.276;9.372;2023-05-07T00:55:10;16.60;75.20
49413;DHT22;35493;50.276;9.372;2023-05-07T00:57:40;16.60;74.80
49413;DHT22;35493;50.276;9.372;2023-05-07T01:00:07;16.70;74.40
49413;DHT22;35493;50.276;9.372;2023-05-07T01:02:35;16.70;74.20
49413;DHT22;35493;50.276;9.372;2023-05-07T01:05:02;16.70;74.00
49413;DHT22;35493;50.276;9.372;2023-05-07T01:07:32;16.70;74.00
49413;DHT22;35493;50.276;9.372;2023-05-07T01:10:03;16.70;74.20
49413;DHT22;35493;50.276;9.372;2023-05-07T01:12:30;16.60;74.50
49413;DHT22;35493;50.276;9.372;2023-05-07T01:14:58;16.60;74.70
49413;DHT22;35493;50.276;9.372;2023-05-07T01:17:25;16.60;74.70
49413;DHT22;35493;50.276;9.372;2023-05-07T01:19:52;16.60;74.50
49413;DHT22;35493;50.276;9.372;2023-05-07T01:22:27;16.60;74.50
49413;DHT22;35493;50.276;9.372;2023-05-07T01:24:55;16.60;74.30
49413;DHT22;35493;50.276;9.372;2023-05-07T01:27:22;16.60;74.40
49413;DHT22;35493;50.276;9.372;2023-05-07T01:29:50;16.60;74.30
49413;DHT22;35493;50.276;9.372;2023-05-07T01:32:17;16.60;74.30
49413;DHT22;35493;50.276;9.372;2023-05-07T01:34:45;16.60;74.50
49413;DHT22;35493;50.276;9.372;2023-05-07T01:37:12;16.60;74.40
49413;DHT22;35493;50.276;9.372;2023-05-07T01:39:40;16.50;74.60
49413;DHT22;35493;50.276;9.372;2023-05-07T01:42:07;16.40;74.70
49413;DHT22;35493;50.276;9.372;2023-05-07T01:44:34;16.40;75.00
49413;DHT22;35493;50.276;9.372;2023-05-07T01:47:01;16.40;75.10
49413;DHT22;35493;50.276;9.372;2023-05-07T01:49:28;16.30;75.30
49413;DHT22;35493;50.276;9.372;2023-05-07T01:51:55;16.40;75.50
49413;DHT22;35493;50.276;9.372;2023-05-07T01:54:24;16.30;75.60
49413;DHT22;35493;50.276;9.372;2023-05-07T01:56:55;16.30;75.90
49413;DHT22;35493;50.276;9.372;2023-05-07T01:59:22;16.30;76.00
49413;DHT22;35493;50.276;9.372;2023-05-07T02:01:49;16.20;76.10
49413;DHT22;35493;50.276;9.372;2023-05-07T02:04:16;16.20;76.20
49413;DHT22;35493;50.276;9.372;2023-05-07T02:06:43;16.20;76.40
49413;DHT22;35493;50.276;9.372;2023-05-07T02:09:11;16.20;76.40
49413;DHT22;35493;50.276;9.372;2023-05-07T02:11:40;16.20;76.50
49413;DHT22;35493;50.276;9.372;2023-05-07T02:14:08;16.20;76.60
49413;DHT22;35493;50.276;9.372;2023-05-07T02:16:35;16.10;76.70
49413;DHT22;35493;50.276;9.372;2023-05-07T02:19:02;16.10;76.80
49413;DHT22;35493;50.276;9.372;2023-05-07T02:21:29;16.20;76.50
49413;DHT22;35493;50.276;9.372;2023-05-07T02:23:55;16.20;76.30
49413;DHT22;35493;50.276;9.372;2023-05-07T02:26:22;16.20;76.30
49413;DHT22;35493;50.276;9.372;2023-05-07T02:28:49;16.20;76.10
49413;DHT22;35493;50.276;9.372;2023-05-07T02:31:18;16.20;76.10
49413;DHT22;35493;50.276;9.372;2023-05-07T02:33:45;16.20;76.40
49413;DHT22;35493;50.276;9.372;2023-05-07T02:36:12;16.10;76.80
49413;DHT22;35493;50.276;9.372;2023-05-07T02:38:49;16.10;77.00
49413;DHT22;35493;50.276;9.372;2023-05-07T02:41:15;16.10;77.10
49413;DHT22;35493;50.276;9.372;2023-05-07T02:43:42;16.10;77.20
49413;DHT22;35493;50.276;9.372;2023-05-07T02:46:09;16.10;77.30
49413;DHT22;35493;50.276;9.372;2023-05-07T02:48:41;16.10;77.40
49413;DHT22;35493;50.276;9.372;2023-05-07T02:51:08;16.00;77.40
49413;DHT22;35493;50.276;9.372;2023-05-07T02:53:37;16.00;77.50
49413;DHT22;35493;50.276;9.372;2023-05-07T02:56:04;16.00;77.70
49413;DHT22;35493;50.276;9.372;2023-05-07T02:58:31;15.90;77.90
49413;DHT22;35493;50.276;9.372;2023-05-07T03:01:00;15.90;78.00
49413;DHT22;35493;50.276;9.372;2023-05-07T03:03:34;15.90;78.10
49413;DHT22;35493;50.276;9.372;2023-05-07T03:06:02;15.90;78.10
49413;DHT22;35493;50.276;9.372;2023-05-07T03:08:29;15.90;78.30
49413;DHT22;35493;50.276;9.372;2023-05-07T03:10:56;15.90;78.40
49413;DHT22;35493;50.276;9.372;2023-05-07T03:13:23;15.90;78.50
49413;DHT22;35493;50.276;9.372;2023-05-07T03:15:49;15.80;78.50
49413;DHT22;35493;50.276;9.372;2023-05-07T03:18:16;15.80;78.60
49413;DHT22;35493;50.276;9.372;2023-05-07T03:20:43;15.80;78.70
49413;DHT22;35493;50.276;9.372;2023-05-07T03:23:11;15.80;78.80
49413;DHT22;35493;50.276;9.372;2023-05-07T03:25:38;15.80;78.50
49413;DHT22;35493;50.276;9.372;2023-05-07T03:28:05;15.80;78.70
49413;DHT22;35493;50.276;9.372;2023-05-07T03:30:46;15.80;78.80
49413;DHT22;35493;50.276;9.372;2023-05-07T03:33:13;15.80;78.90
49413;DHT22;35493;50.276;9.372;2023-05-07T03:35:41;15.80;78.90
49413;DHT22;35493;50.276;9.372;2023-05-07T03:38:08;15.80;78.70
49413;DHT22;35493;50.276;9.372;2023-05-07T03:40:38;15.90;78.20
49413;DHT22;35493;50.276;9.372;2023-05-07T03:43:04;15.80;78.40
49413;DHT22;35493;50.276;9.372;2023-05-07T03:45:34;15.80;78.40
49413;DHT22;35493;50.276;9.372;2023-05-07T03:48:08;15.80;78.20
49413;DHT22;35493;50.276;9.372;2023-05-07T03:50:35;15.80;78.20
49413;DHT22;35493;50.276;9.372;2023-05-07T03:53:02;15.80;78.10
49413;DHT22;35493;50.276;9.372;2023-05-07T03:55:31;15.70;78.10
49413;DHT22;35493;50.276;9.372;2023-05-07T03:58:00;15.70;78.20
49413;DHT22;35493;50.276;9.372;2023-05-07T04:00:28;15.70;78.30
49413;DHT22;35493;50.276;9.372;2023-05-07T04:02:59;15.70;77.90
49413;DHT22;35493;50.276;9.372;2023-05-07T04:05:29;15.70;78.00
49413;DHT22;35493;50.276;9.372;2023-05-07T04:08:00;15.70;78.20
49413;DHT22;35493;50.276;9.372;2023-05-07T04:10:34;15.70;78.20
49413;DHT22;35493;50.276;9.372;2023-05-07T04:13:07;15.70;78.10
49413;DHT22;35493;50.276;9.372;2023-05-07T04:15:35;15.70;78.30
49413;DHT22;35493;50.276;9.372;2023-05-07T04:18:03;15.70;78.30
49413;DHT22;35493;50.276;9.372;2023-05-07T04:20:30;15.70;78.20
49413;DHT22;35493;50.276;9.372;2023-05-07T04:23:02;15.70;78.30
49413;DHT22;35493;50.276;9.372;2023-05-07T04:25:29;15.70;78.40
49413;DHT22;35493;50.276;9.372;2023-05-07T04:28:05;15.70;78.50
49413;DHT22;35493;50.276;9.372;2023-05-07T04:30:33;15.70;78.50
49413;DHT22;35493;50.276;9.372;2023-05-07T04:33:02;15.60;78.60
49413;DHT22;35493;50.276;9.372;2023-05-07T04:35:30;15.70;78.70
49413;DHT22;35493;50.276;9.372;2023-05-07T04:37:57;15.70;79.00
49413;DHT22;35493;50.276;9.372;2023-05-07T04:40:24;15.70;79.10
49413;DHT22;35493;50.276;9.372;2023-05-07T04:42:51;15.70;79.20
49413;DHT22;35493;50.276;9.372;2023-05-07T04:45:18;15.70;79.20
49413;DHT22;35493;50.276;9.372;2023-05-07T04:47:48;15.70;78.50
49413;DHT22;35493;50.276;9.372;2023-05-07T04:50:15;15.70;78.10
49413;DHT22;35493;50.276;9.372;2023-05-07T04:52:43;15.70;78.20
49413;DHT22;35493;50.276;9.372;2023-05-07T04:55:10;15.70;78.10
49413;DHT22;35493;50.276;9.372;2023-05-07T04:57:39;15.70;78.00
49413;DHT22;35493;50.276;9.372;2023-05-07T05:00:08;15.70;78.00
49413;DHT22;35493;50.276;9.372;2023-05-07T05:02:37;15.70;78.00
49413;DHT22;35493;50.276;9.372;2023-05-07T05:05:05;15.80;78.00
49413;DHT22;35493;50.276;9.372;2023-05-07T05:07:32;15.80;78.30
49413;DHT22;35493;50.276;9.372;2023-05-07T05:09:59;15.80;78.00
49413;DHT22;35493;50.276;9.372;2023-05-07T05:12:26;15.90;78.00
49413;DHT22;35493;50.276;9.372;2023-05-07T05:14:53;15.90;77.70
49413;DHT22;35493;50.276;9.372;2023-05-07T05:17:20;15.90;77.70
49413;DHT22;35493;50.276;9.372;2023-05-07T05:19:47;15.90;77.70
49413;DHT22;35493;50.276;9.372;2023-05-07T05:22:15;15.90;77.80
49413;DHT22;35493;50.276;9.372;2023-05-07T05:24:42;15.90;77.90
49413;DHT22;35493;50.276;9.372;2023-05-07T05:27:09;15.90;77.90
49413;DHT22;35493;50.276;9.372;2023-05-07T05:29:35;15.90;77.60
49413;DHT22;35493;50.276;9.372;2023-05-07T05:32:02;16.00;77.30
49413;DHT22;35493;50.276;9.372;2023-05-07T05:34:30;16.00;76.90
49413;DHT22;35493;50.276;9.372;2023-05-07T05:36:59;16.10;76.10
49413;DHT22;35493;50.276;9.372;2023-05-07T05:39:27;16.10;75.70
49413;DHT22;35493;50.276;9.372;2023-05-07T05:41:54;16.10;75.60
49413;DHT22;35493;50.276;9.372;2023-05-07T05:44:21;16.10;75.80
49413;DHT22;35493;50.276;9.372;2023-05-07T05:46:47;16.10;75.60
49413;DHT22;35493;50.276;9.372;2023-05-07T05:49:15;16.20;75.40
49413;DHT22;35493;50.276;9.372;2023-05-07T05:51:42;16.20;75.80
49413;DHT22;35493;50.276;9.372;2023-05-07T05:54:09;16.20;75.90
49413;DHT22;35493;50.276;9.372;2023-05-07T05:56:37;16.20;75.80
49413;DHT22;35493;50.276;9.372;2023-05-07T05:59:04;16.20;76.10
49413;DHT22;35493;50.276;9.372;2023-05-07T06:01:31;16.20;75.90
49413;DHT22;35493;50.276;9.372;2023-05-07T06:04:01;16.20;76.00
49413;DHT22;35493;50.276;9.372;2023-05-07T06:06:28;16.20;75.80
49413;DHT22;35493;50.276;9.372;2023-05-07T06:08:56;16.30;75.40
49413;DHT22;35493;50.276;9.372;2023-05-07T06:11:29;16.30;75.00
49413;DHT22;35493;50.276;9.372;2023-05-07T06:13:57;16.30;74.60
49413;DHT22;35493;50.276;9.372;2023-05-07T06:16:25;16.40;74.50
49413;DHT22;35493;50.276;9.372;2023-05-07T06:18:52;16.40;74.50
49413;DHT22;35493;50.276;9.372;2023-05-07T06:21:19;16.40;74.80
49413;DHT22;35493;50.276;9.372;2023-05-07T06:23:46;16.40;74.90
49413;DHT22;35493;50.276;9.372;2023-05-07T06:26:13;16.50;75.00
49413;DHT22;35493;50.276;9.372;2023-05-07T06:28:43;16.50;74.90
49413;DHT22;35493;50.276;9.372;2023-05-07T06:31:14;16.50;74.50
49413;DHT22;35493;50.276;9.372;2023-05-07T06:33:45;16.60;74.10
49413;DHT22;35493;50.276;9.372;2023-05-07T06:36:12;16.60;74.30
49413;DHT22;35493;50.276;9.372;2023-05-07T06:38:39;16.60;73.80
49413;DHT22;35493;50.276;9.372;2023-05-07T06:41:06;16.60;73.80
49413;DHT22;35493;50.276;9.372;2023-05-07T06:43:33;16.60;73.70
49413;DHT22;35493;50.276;9.372;2023-05-07T06:46:24;16.70;73.80
49413;DHT22;35493;50.276;9.372;2023-05-07T06:48:51;16.80;73.30
49413;DHT22;35493;50.276;9.372;2023-05-07T06:51:19;16.90;73.20
49413;DHT22;35493;50.276;9.372;2023-05-07T06:53:46;16.90;73.10
49413;DHT22;35493;50.276;9.372;2023-05-07T06:56:12;16.90;73.10
49413;DHT22;35493;50.276;9.372;2023-05-07T06:58:39;17.10;73.10
49413;DHT22;35493;50.276;9.372;2023-05-07T07:01:07;17.10;72.90
49413;DHT22;35493;50.276;9.372;2023-05-07T07:03:37;17.30;72.50
49413;DHT22;35493;50.276;9.372;2023-05-07T07:06:04;17.40;72.40
49413;DHT22;35493;50.276;9.372;2023-05-07T07:08:31;17.40;72.10
49413;DHT22;35493;50.276;9.372;2023-05-07T07:10:58;17.50;71.50
49413;DHT22;35493;50.276;9.372;2023-05-07T07:13:25;17.50;71.20
49413;DHT22;35493;50.276;9.372;2023-05-07T07:15:52;17.60;71.10
49413;DHT22;35493;50.276;9.372;2023-05-07T07:18:19;17.60;70.90
49413;DHT22;35493;50.276;9.372;2023-05-07T07:20:49;17.50;71.20
49413;DHT22;35493;50.276;9.372;2023-05-07T07:23:15;17.60;71.10
49413;DHT22;35493;50.276;9.372;2023-05-07T07:25:42;17.50;70.60
49413;DHT22;35493;50.276;9.372;2023-05-07T07:28:10;17.60;70.40
49413;DHT22;35493;50.276;9.372;2023-05-07T07:30:38;17.50;70.80
49413;DHT22;35493;50.276;9.372;2023-05-07T07:33:05;17.40;70.80
49413;DHT22;35493;50.276;9.372;2023-05-07T07:35:35;17.50;70.60
49413;DHT22;35493;50.276;9.372;2023-05-07T07:38:05;17.50;70.40
49413;DHT22;35493;50.276;9.372;2023-05-07T07:40:31;17.50;70.40
49413;DHT22;35493;50.276;9.372;2023-05-07T07:43:01;17.50;70.40
49413;DHT22;35493;50.276;9.372;2023-05-07T07:45:28;17.60;70.50
49413;DHT22;35493;50.276;9.372;2023-05-07T07:47:55;17.60;70.50
49413;DHT22;35493;50.276;9.372;2023-05-07T07:50:22;17.60;70.40
49413;DHT22;35493;50.276;9.372;2023-05-07T07:52:49;17.60;70.10
49413;DHT22;35493;50.276;9.372;2023-05-07T07:55:19;17.70;70.00
49413;DHT22;35493;50.276;9.372;2023-05-07T07:57:49;17.70;69.90
49413;DHT22;35493;50.276;9.372;2023-05-07T08:00:16;17.70;69.50
49413;DHT22;35493;50.276;9.372;2023-05-07T08:02:43;17.80;69.40
49413;DHT22;35493;50.276;9.372;2023-05-07T08:05:17;17.90;69.30
49413;DHT22;35493;50.276;9.372;2023-05-07T08:07:44;18.00;69.50
49413;DHT22;35493;50.276;9.372;2023-05-07T08:10:12;18.10;69.40
49413;DHT22;35493;50.276;9.372;2023-05-07T08:12:48;18.10;69.10
49413;DHT22;35493;50.276;9.372;2023-05-07T08:15:15;18.20;69.00
49413;DHT22;35493;50.276;9.372;2023-05-07T08:17:43;18.30;68.90
49413;DHT22;35493;50.276;9.372;2023-05-07T08:20:10;18.50;68.30
49413;DHT22;35493;50.276;9.372;2023-05-07T08:22:37;18.70;68.10
49413;DHT22;35493;50.276;9.372;2023-05-07T08:25:05;18.90;68.10
49413;DHT22;35493;50.276;9.372;2023-05-07T08:27:32;19.00;68.00
49413;DHT22;35493;50.276;9.372;2023-05-07T08:30:01;19.10;67.90
49413;DHT22;35493;50.276;9.372;2023-05-07T08:32:33;19.20;67.00
49413;DHT22;35493;50.276;9.372;2023-05-07T08:35:14;19.30;66.60
49413;DHT22;35493;50.276;9.372;2023-05-07T08:37:47;19.30;66.50
49413;DHT22;35493;50.276;9.372;2023-05-07T08:40:29;19.40;66.40
49413;DHT22;35493;50.276;9.372;2023-05-07T08:42:59;19.60;65.70
49413;DHT22;35493;50.276;9.372;2023-05-07T08:45:28;19.80;64.90
49413;DHT22;35493;50.276;9.372;2023-05-07T08:47:58;19.90;64.80
49413;DHT22;35493;50.276;9.372;2023-05-07T08:50:29;19.80;64.70
49413;DHT22;35493;50.276;9.372;2023-05-07T08:52:57;19.80;64.60
49413;DHT22;35493;50.276;9.372;2023-05-07T08:55:26;19.90;64.00
49413;DHT22;35493;50.276;9.372;2023-05-07T08:57:55;19.90;64.00
49413;DHT22;35493;50.276;9.372;2023-05-07T09:00:22;19.90;63.60
49413;DHT22;35493;50.276;9.372;2023-05-07T09:02:53;19.90;63.70
49413;DHT22;35493;50.276;9.372;2023-05-07T09:05:20;20.00;63.30
49413;DHT22;35493;50.276;9.372;2023-05-07T09:07:47;20.10;63.10
49413;DHT22;35493;50.276;9.372;2023-05-07T09:10:15;20.10;63.20
49413;DHT22;35493;50.276;9.372;2023-05-07T09:12:43;20.20;62.90
49413;DHT22;35493;50.276;9.372;2023-05-07T09:15:13;20.20;63.00
49413;DHT22;35493;50.276;9.372;2023-05-07T09:17:40;20.40;62.50
49413;DHT22;35493;50.276;9.372;2023-05-07T09:20:09;20.60;62.30
49413;DHT22;35493;50.276;9.372;2023-05-07T09:22:36;20.70;62.50
49413;DHT22;35493;50.276;9.372;2023-05-07T09:25:07;20.90;61.90
49413;DHT22;35493;50.276;9.372;2023-05-07T09:27:36;20.90;61.90
49413;DHT22;35493;50.276;9.372;2023-05-07T09:30:03;21.00;61.70
49413;DHT22;35493;50.276;9.372;2023-05-07T09:32:34;21.10;61.50
49413;DHT22;35493;50.276;9.372;2023-05-07T09:35:01;21.20;61.60
49413;DHT22;35493;50.276;9.372;2023-05-07T09:37:30;21.30;61.30
49413;DHT22;35493;50.276;9.372;2023-05-07T09:39:57;21.40;61.30
49413;DHT22;35493;50.276;9.372;2023-05-07T09:42:26;21.30;61.00
49413;DHT22;35493;50.276;9.372;2023-05-07T09:44:55;21.40;60.60
49413;DHT22;35493;50.276;9.372;2023-05-07T09:47:26;21.50;60.20
49413;DHT22;35493;50.276;9.372;2023-05-07T09:49:58;21.40;59.60
49413;DHT22;35493;50.276;9.372;2023-05-07T09:52:26;21.50;60.00
49413;DHT22;35493;50.276;9.372;2023-05-07T09:55:00;21.70;59.40
49413;DHT22;35493;50.276;9.372;2023-05-07T09:57:30;22.00;59.00
49413;DHT22;35493;50.276;9.372;2023-05-07T10:00:03;22.10;58.40
49413;DHT22;35493;50.276;9.372;2023-05-07T10:02:35;22.20;58.20
49413;DHT22;35493;50.276;9.372;2023-05-07T10:05:03;22.20;57.40
49413;DHT22;35493;50.276;9.372;2023-05-07T10:07:32;22.20;57.70
49413;DHT22;35493;50.276;9.372;2023-05-07T10:10:07;22.20;57.90
49413;DHT22;35493;50.276;9.372;2023-05-07T10:12:39;22.20;57.60
49413;DHT22;35493;50.276;9.372;2023-05-07T10:15:12;22.20;57.30
49413;DHT22;35493;50.276;9.372;2023-05-07T10:17:42;22.30;56.90
49413;DHT22;35493;50.276;9.372;2023-05-07T10:20:11;22.40;56.20
49413;DHT22;35493;50.276;9.372;2023-05-07T10:22:41;22.50;56.20
49413;DHT22;35493;50.276;9.372;2023-05-07T10:25:13;22.60;56.00
49413;DHT22;35493;50.276;9.372;2023-05-07T10:27:41;22.70;55.70
49413;DHT22;35493;50.276;9.372;2023-05-07T10:30:12;22.70;55.90
49413;DHT22;35493;50.276;9.372;2023-05-07T10:32:42;22.60;55.70
49413;DHT22;35493;50.276;9.372;2023-05-07T10:35:20;22.60;55.80
49413;DHT22;35493;50.276;9.372;2023-05-07T10:37:48;22.60;55.30
49413;DHT22;35493;50.276;9.372;2023-05-07T10:40:18;22.70;54.70
49413;DHT22;35493;50.276;9.372;2023-05-07T10:42:53;22.90;54.50
49413;DHT22;35493;50.276;9.372;2023-05-07T10:45:21;23.00;54.70
49413;DHT22;35493;50.276;9.372;2023-05-07T10:50:40;23.30;53.70
49413;DHT22;35493;50.276;9.372;2023-05-07T10:53:24;23.40;53.70
49413;DHT22;35493;50.276;9.372;2023-05-07T10:58:56;23.90;53.10
49413;DHT22;35493;50.276;9.372;2023-05-07T11:01:49;24.00;52.40
49413;DHT22;35493;50.276;9.372;2023-05-07T11:04:19;24.10;51.90
49413;DHT22;35493;50.276;9.372;2023-05-07T11:09:59;24.10;51.00
49413;DHT22;35493;50.276;9.372;2023-05-07T11:12:55;24.10;50.40
49413;DHT22;35493;50.276;9.372;2023-05-07T11:15:43;24.10;50.80
49413;DHT22;35493;50.276;9.372;2023-05-07T11:18:17;24.10;50.90
49413;DHT22;35493;50.276;9.372;2023-05-07T11:20:56;24.10;50.50
49413;DHT22;35493;50.276;9.372;2023-05-07T11:23:56;24.10;51.20
49413;DHT22;35493;50.276;9.372;2023-05-07T11:26:31;24.10;51.20
49413;DHT22;35493;50.276;9.372;2023-05-07T11:28:58;24.00;50.00
49413;DHT22;35493;50.276;9.372;2023-05-07T11:31:28;24.00;50.20
49413;DHT22;35493;50.276;9.372;2023-05-07T11:33:57;24.20;50.90
49413;DHT22;35493;50.276;9.372;2023-05-07T11:36:24;24.20;50.30
49413;DHT22;35493;50.276;9.372;2023-05-07T11:38:54;24.20;50.20
49413;DHT22;35493;50.276;9.372;2023-05-07T11:41:21;24.30;49.70
49413;DHT22;35493;50.276;9.372;2023-05-07T11:43:55;24.30;50.20
49413;DHT22;35493;50.276;9.372;2023-05-07T11:46:22;24.20;49.70
49413;DHT22;35493;50.276;9.372;2023-05-07T11:48:50;24.20;49.30
49413;DHT22;35493;50.276;9.372;2023-05-07T11:51:20;24.30;49.40
49413;DHT22;35493;50.276;9.372;2023-05-07T11:53:47;24.40;49.30
49413;DHT22;35493;50.276;9.372;2023-05-07T11:56:15;24.50;49.40
49413;DHT22;35493;50.276;9.372;2023-05-07T11:58:42;24.60;49.70
49413;DHT22;35493;50.276;9.372;2023-05-07T12:01:10;24.60;49.10
49413;DHT22;35493;50.276;9.372;2023-05-07T12:03:37;24.60;49.00
49413;DHT22;35493;50.276;9.372;2023-05-07T12:06:06;24.60;50.10
49413;DHT22;35493;50.276;9.372;2023-05-07T12:08:35;24.50;49.30
49413;DHT22;35493;50.276;9.372;2023-05-07T12:11:02;24.50;49.70
49413;DHT22;35493;50.276;9.372;2023-05-07T12:13:29;24.50;49.60
49413;DHT22;35493;50.276;9.372;2023-05-07T12:15:56;24.50;49.60
49413;DHT22;35493;50.276;9.372;2023-05-07T12:18:23;24.60;49.00
49413;DHT22;35493;50.276;9.372;2023-05-07T12:20:50;24.80;48.60
49413;DHT22;35493;50.276;9.372;2023-05-07T12:23:18;24.90;47.90
49413;DHT22;35493;50.276;9.372;2023-05-07T12:25:45;25.00;47.70
49413;DHT22;35493;50.276;9.372;2023-05-07T12:28:13;24.90;47.70
49413;DHT22;35493;50.276;9.372;2023-05-07T12:30:40;25.00;49.00
49413;DHT22;35493;50.276;9.372;2023-05-07T12:33:08;25.00;47.50
49413;DHT22;35493;50.276;9.372;2023-05-07T12:35:36;24.90;47.20
49413;DHT22;35493;50.276;9.372;2023-05-07T12:38:07;24.90;47.00
49413;DHT22;35493;50.276;9.372;2023-05-07T12:40:39;25.00;46.80
49413;DHT22;35493;50.276;9.372;2023-05-07T12:43:05;25.10;47.90
49413;DHT22;35493;50.276;9.372;2023-05-07T12:45:36;25.10;47.10
49413;DHT22;35493;50.276;9.372;2023-05-07T12:48:03;25.10;47.00
49413;DHT22;35493;50.276;9.372;2023-05-07T12:50:33;25.10;47.10
49413;DHT22;35493;50.276;9.372;2023-05-07T12:52:59;25.00;48.70
49413;DHT22;35493;50.276;9.372;2023-05-07T12:55:28;25.10;47.90
49413;DHT22;35493;50.276;9.372;2023-05-07T12:57:56;25.10;48.50
49413;DHT22;35493;50.276;9.372;2023-05-07T13:00:33;25.10;46.90
49413;DHT22;35493;50.276;9.372;2023-05-07T13:03:00;25.10;45.90
49413;DHT22;35493;50.276;9.372;2023-05-07T13:05:27;25.00;46.30
49413;DHT22;35493;50.276;9.372;2023-05-07T13:07:54;24.80;46.90
49413;DHT22;35493;50.276;9.372;2023-05-07T13:10:21;24.70;47.70
49413;DHT22;35493;50.276;9.372;2023-05-07T13:12:48;24.80;47.10
49413;DHT22;35493;50.276;9.372;2023-05-07T13:15:16;24.90;47.40
49413;DHT22;35493;50.276;9.372;2023-05-07T13:17:43;24.80;47.30
49413;DHT22;35493;50.276;9.372;2023-05-07T13:20:10;24.80;47.20
49413;DHT22;35493;50.276;9.372;2023-05-07T13:22:38;24.60;47.50
49413;DHT22;35493;50.276;9.372;2023-05-07T13:25:05;24.60;47.10
49413;DHT22;35493;50.276;9.372;2023-05-07T13:27:32;24.50;46.70
49413;DHT22;35493;50.276;9.372;2023-05-07T13:30:01;24.50;48.50
49413;DHT22;35493;50.276;9.372;2023-05-07T13:32:29;24.50;46.60
49413;DHT22;35493;50.276;9.372;2023-05-07T13:34:56;24.60;47.60
49413;DHT22;35493;50.276;9.372;2023-05-07T13:37:23;24.60;47.20
49413;DHT22;35493;50.276;9.372;2023-05-07T13:39:49;24.70;47.60
49413;DHT22;35493;50.276;9.372;2023-05-07T13:42:16;24.70;47.40
49413;DHT22;35493;50.276;9.372;2023-05-07T13:44:43;24.70;47.30
49413;DHT22;35493;50.276;9.372;2023-05-07T13:47:10;24.80;47.00
49413;DHT22;35493;50.276;9.372;2023-05-07T13:49:38;24.60;47.80
49413;DHT22;35493;50.276;9.372;2023-05-07T13:52:05;24.60;47.20
49413;DHT22;35493;50.276;9.372;2023-05-07T13:54:32;24.50;49.70
49413;DHT22;35493;50.276;9.372;2023-05-07T13:56:59;24.40;48.10
49413;DHT22;35493;50.276;9.372;2023-05-07T13:59:25;24.20;48.00
49413;DHT22;35493;50.276;9.372;2023-05-07T14:01:52;24.10;48.20
49413;DHT22;35493;50.276;9.372;2023-05-07T14:04:20;24.10;47.30
49413;DHT22;35493;50.276;9.372;2023-05-07T14:06:48;24.00;46.60
49413;DHT22;35493;50.276;9.372;2023-05-07T14:09:14;24.00;47.30
49413;DHT22;35493;50.276;9.372;2023-05-07T14:11:41;24.00;47.70
49413;DHT22;35493;50.276;9.372;2023-05-07T14:14:08;23.90;48.20
49413;DHT22;35493;50.276;9.372;2023-05-07T14:16:36;23.90;47.70
49413;DHT22;35493;50.276;9.372;2023-05-07T14:19:03;23.90;48.50
49413;DHT22;35493;50.276;9.372;2023-05-07T14:21:29;23.90;48.30
49413;DHT22;35493;50.276;9.372;2023-05-07T14:23:58;23.80;48.60
49413;DHT22;35493;50.276;9.372;2023-05-07T14:26:25;23.90;48.80
49413;DHT22;35493;50.276;9.372;2023-05-07T14:28:53;23.90;48.90
49413;DHT22;35493;50.276;9.372;2023-05-07T14:31:22;23.90;49.10
49413;DHT22;35493;50.276;9.372;2023-05-07T14:33:49;23.80;49.40
49413;DHT22;35493;50.276;9.372;2023-05-07T14:36:16;23.80;49.50
49413;DHT22;35493;50.276;9.372;2023-05-07T14:38:42;23.80;49.50
49413;DHT22;35493;50.276;9.372;2023-05-07T14:41:11;23.80;49.70
49413;DHT22;35493;50.276;9.372;2023-05-07T14:43:38;23.80;49.50
49413;DHT22;35493;50.276;9.372;2023-05-07T14:46:05;23.90;49.40
49413;DHT22;35493;50.276;9.372;2023-05-07T14:48:31;23.90;49.40
49413;DHT22;35493;50.276;9.372;2023-05-07T14:50:58;23.90;48.90
49413;DHT22;35493;50.276;9.372;2023-05-07T14:53:25;24.00;48.70
49413;DHT22;35493;50.276;9.372;2023-05-07T14:55:52;24.00;48.30
49413;DHT22;35493;50.276;9.372;2023-05-07T14:58:20;24.00;48.10
49413;DHT22;35493;50.276;9.372;2023-05-07T15:00:47;23.90;47.80
49413;DHT22;35493;50.276;9.372;2023-05-07T15:03:14;23.90;49.00
49413;DHT22;35493;50.276;9.372;2023-05-07T15:05:43;23.90;48.70
49413;DHT22;35493;50.276;9.372;2023-05-07T15:08:09;23.90;49.00
49413;DHT22;35493;50.276;9.372;2023-05-07T15:10:37;23.90;48.80
49413;DHT22;35493;50.276;9.372;2023-05-07T15:13:06;23.90;49.60
49413;DHT22;35493;50.276;9.372;2023-05-07T15:15:34;23.80;49.00
49413;DHT22;35493;50.276;9.372;2023-05-07T15:18:02;23.80;49.40
49413;DHT22;35493;50.276;9.372;2023-05-07T15:20:29;23.80;49.50
49413;DHT22;35493;50.276;9.372;2023-05-07T15:22:56;23.80;49.40
49413;DHT22;35493;50.276;9.372;2023-05-07T15:25:23;23.80;49.50
49413;DHT22;35493;50.276;9.372;2023-05-07T15:27:50;23.80;49.40
49413;DHT22;35493;50.276;9.372;2023-05-07T15:30:17;23.80;49.50
49413;DHT22;35493;50.276;9.372;2023-05-07T15:32:46;23.70;49.00
49413;DHT22;35493;50.276;9.372;2023-05-07T15:35:13;23.60;49.00
49413;DHT22;35493;50.276;9.372;2023-05-07T15:37:40;23.60;49.30
49413;DHT22;35493;50.276;9.372;2023-05-07T15:40:07;23.60;49.60
49413;DHT22;35493;50.276;9.372;2023-05-07T15:42:34;23.60;50.70
49413;DHT22;35493;50.276;9.372;2023-05-07T15:45:01;23.60;49.60
49413;DHT22;35493;50.276;9.372;2023-05-07T15:47:28;23.60;49.40